createdAt,value
2018-09-28T00:01:42.052Z,15.58
2018-09-28T00:04:16.283Z,15.67
2018-09-28T00:06:50.116Z,14.70
2018-09-28T00:09:22.824Z,15.13
2018-09-28T00:11:56.097Z,11.33
2018-09-28T00:14:30.390Z,13.43
2018-09-28T00:17:03.526Z,14.93
2018-09-28T00:19:37.190Z,16.25
2018-09-28T00:22:10.925Z,40.87
2018-09-28T00:24:44.829Z,90.07
2018-09-28T00:27:17.465Z,106.37
2018-09-28T00:29:51.953Z,101.12
2018-09-28T00:33:54.688Z,84.17
2018-09-28T00:36:27.711Z,39.18
2018-09-28T00:39:11.293Z,38.53
2018-09-28T00:41:45.398Z,30.97
2018-09-28T00:44:18.948Z,28.23
2018-09-28T00:46:51.843Z,26.47
2018-09-28T00:49:25.037Z,144.60
2018-09-28T00:51:59.569Z,32.47
2018-09-28T00:54:35.933Z,32.10
2018-09-28T00:57:10.455Z,25.97
2018-09-28T00:59:43.814Z,30.40
2018-09-28T01:02:17.973Z,20.87
2018-09-28T01:04:50.780Z,17.83
2018-09-28T01:07:24.205Z,17.63
2018-09-28T01:09:57.276Z,19.07
2018-09-28T01:12:31.883Z,22.07
2018-09-28T01:15:05.610Z,19.53
2018-09-28T01:17:40.639Z,19.47
2018-09-28T01:20:19.198Z,16.97
2018-09-28T01:22:53.158Z,21.17
2018-09-28T01:25:43.385Z,28.87
2018-09-28T01:28:19.832Z,27.50
2018-09-28T01:30:53.639Z,29.33
2018-09-28T01:33:27.570Z,30.43
2018-09-28T01:36:02.691Z,23.60
2018-09-28T01:38:36.046Z,18.33
2018-09-28T01:41:13.938Z,20.63
2018-09-28T01:43:51.797Z,19.47
2018-09-28T01:46:25.242Z,15.88
2018-09-28T01:49:01.390Z,14.70
2018-09-28T01:51:34.715Z,18.83
2018-09-28T01:54:09.313Z,21.80
2018-09-28T01:59:39.262Z,31.25
2018-09-28T02:02:12.034Z,17.27
2018-09-28T02:04:44.735Z,17.63
2018-09-28T02:07:18.489Z,21.43
2018-09-28T02:09:54.302Z,29.92
2018-09-28T02:12:27.818Z,28.77
2018-09-28T02:15:06.697Z,59.70
2018-09-28T02:17:40.834Z,33.07
2018-09-28T02:20:13.785Z,31.73
2018-09-28T02:22:47.589Z,27.40
2018-09-28T02:25:20.215Z,18.93
2018-09-28T02:27:53.335Z,21.57
2018-09-28T02:30:26.208Z,19.73
2018-09-28T02:33:06.908Z,19.13
2018-09-28T02:35:39.738Z,23.60
2018-09-28T02:38:12.699Z,25.87
2018-09-28T02:40:48.995Z,26.90
2018-09-28T02:43:25.443Z,24.70
2018-09-28T02:46:01.896Z,32.60
2018-09-28T02:48:42.431Z,56.50
2018-09-28T02:51:22.593Z,45.33
2018-09-28T02:53:55.767Z,34.00
2018-09-28T02:56:29.720Z,33.77
2018-09-28T02:59:03.296Z,34.80
2018-09-28T03:01:36.865Z,25.63
2018-09-28T03:04:16.074Z,30.87
2018-09-28T03:06:48.548Z,40.03
2018-09-28T03:09:21.304Z,35.73
2018-09-28T03:11:54.325Z,46.17
2018-09-28T03:14:27.346Z,25.20
2018-09-28T03:17:00.565Z,21.33
2018-09-28T03:19:32.938Z,20.70
2018-09-28T03:22:05.929Z,26.07
2018-09-28T03:24:38.429Z,28.90
2018-09-28T03:27:13.374Z,25.90
2018-09-28T03:29:45.829Z,24.20
2018-09-28T03:32:23.193Z,16.03
2018-09-28T03:34:55.853Z,14.57
2018-09-28T03:37:28.406Z,13.38
2018-09-28T03:40:00.971Z,14.00
2018-09-28T03:42:34.525Z,29.57
2018-09-28T03:45:07.420Z,32.80
2018-09-28T03:47:41.820Z,94.30
2018-09-28T03:50:15.749Z,135.20
2018-09-28T03:52:56.208Z,115.53
2018-09-28T03:55:28.608Z,97.53
2018-09-28T03:58:09.394Z,60.93
2018-09-28T04:00:44.379Z,51.30
2018-09-28T04:03:17.058Z,38.67
2018-09-28T04:05:49.660Z,26.27
2018-09-28T04:08:22.904Z,23.23
2018-09-28T04:10:55.887Z,15.73
2018-09-28T04:13:28.739Z,14.47
2018-09-28T04:16:01.280Z,11.40
2018-09-28T04:18:34.115Z,9.90
2018-09-28T04:21:06.668Z,10.70
2018-09-28T04:23:39.404Z,11.03
2018-09-28T04:26:12.060Z,38.73
2018-09-28T04:28:46.020Z,67.67
2018-09-28T04:31:18.637Z,184.57
2018-09-28T04:33:51.123Z,133.47
2018-09-28T04:36:23.578Z,64.77
2018-09-28T04:38:56.298Z,46.73
2018-09-28T04:41:29.066Z,32.53
2018-09-28T04:44:01.988Z,30.03
2018-09-28T04:46:34.753Z,23.37
2018-09-28T04:49:07.513Z,17.60
2018-09-28T04:51:40.394Z,17.93
2018-09-28T04:54:13.761Z,15.03
2018-09-28T04:56:46.219Z,23.40
2018-09-28T04:59:24.476Z,91.73
2018-09-28T05:01:57.194Z,112.67
2018-09-28T05:04:29.720Z,102.87
2018-09-28T05:07:08.088Z,66.90
2018-09-28T05:09:40.531Z,36.00
2018-09-28T05:12:14.636Z,24.07
2018-09-28T05:14:47.374Z,21.37
2018-09-28T05:17:22.281Z,19.73
2018-09-28T05:19:54.840Z,13.67
2018-09-28T05:22:27.345Z,11.23
2018-09-28T05:24:59.880Z,17.77
2018-09-28T05:27:39.097Z,20.27
2018-09-28T05:30:12.137Z,13.32
2018-09-28T05:32:53.465Z,9.97
2018-09-28T05:35:26.225Z,8.70
2018-09-28T05:37:59.106Z,8.73
2018-09-28T05:40:31.659Z,8.17
2018-09-28T05:43:04.542Z,8.70
2018-09-28T05:45:38.560Z,7.40
2018-09-28T05:48:14.818Z,8.55
2018-09-28T05:50:47.643Z,8.90
2018-09-28T05:53:20.750Z,12.13
2018-09-28T05:55:53.353Z,61.50
2018-09-28T05:58:30.349Z,67.40
2018-09-28T06:01:07.573Z,60.70
2018-09-28T06:03:50.079Z,38.10
2018-09-28T06:06:22.878Z,39.73
2018-09-28T06:08:55.373Z,19.23
2018-09-28T06:11:28.100Z,15.23
2018-09-28T06:14:08.048Z,15.43
2018-09-28T06:16:40.860Z,11.17
2018-09-28T06:19:18.247Z,12.10
2018-09-28T06:21:51.119Z,13.20
2018-09-28T06:24:23.813Z,11.37
2018-09-28T06:26:56.559Z,11.97
2018-09-28T06:29:28.954Z,11.70
2018-09-28T06:32:03.144Z,17.77
2018-09-28T06:34:38.087Z,15.20
2018-09-28T06:37:12.028Z,13.83
2018-09-28T06:39:45.283Z,11.80
2018-09-28T06:42:18.114Z,10.77
2018-09-28T06:44:50.738Z,10.37
2018-09-28T06:47:23.519Z,9.57
2018-09-28T06:49:56.253Z,12.00
2018-09-28T06:52:31.254Z,9.47
2018-09-28T06:55:05.299Z,9.33
2018-09-28T06:57:40.009Z,17.92
2018-09-28T07:00:17.252Z,7.73
2018-09-28T07:02:51.180Z,8.07
2018-09-28T07:05:23.690Z,7.83
2018-09-28T07:07:56.132Z,7.30
2018-09-28T07:10:34.661Z,6.87
2018-09-28T07:13:06.989Z,7.07
2018-09-28T07:15:39.444Z,7.67
2018-09-28T07:18:12.391Z,7.30
2018-09-28T07:20:45.005Z,7.53
2018-09-28T07:23:17.744Z,7.60
2018-09-28T07:25:50.856Z,7.03
2018-09-28T07:28:23.604Z,9.43
2018-09-28T07:30:56.286Z,8.93
2018-09-28T07:33:29.518Z,8.30
2018-09-28T07:36:02.186Z,9.40
2018-09-28T07:38:35.492Z,8.33
2018-09-28T07:41:11.002Z,11.10
2018-09-28T07:43:43.438Z,9.23
2018-09-28T07:46:15.946Z,9.30
2018-09-28T07:48:48.556Z,10.27
2018-09-28T07:51:21.096Z,9.60
2018-09-28T07:54:00.374Z,10.37
2018-09-28T07:56:33.246Z,10.10
2018-09-28T07:59:05.842Z,9.73
2018-09-28T08:01:40.536Z,8.70
2018-09-28T08:04:13.208Z,8.73
2018-09-28T08:06:45.630Z,8.37
2018-09-28T08:09:17.976Z,8.63
2018-09-28T08:11:50.371Z,8.67
2018-09-28T08:14:22.981Z,8.43
2018-09-28T08:16:55.469Z,9.13
2018-09-28T08:19:28.378Z,9.80
2018-09-28T08:22:00.757Z,10.10
2018-09-28T08:24:33.265Z,9.33
2018-09-28T08:27:05.944Z,9.60
2018-09-28T08:29:38.803Z,10.27
2018-09-28T08:32:11.460Z,11.50
2018-09-28T08:34:44.367Z,9.60
2018-09-28T08:37:16.864Z,9.83
2018-09-28T08:41:18.564Z,9.60
2018-09-28T08:43:50.975Z,9.67
2018-09-28T08:46:23.697Z,10.27
2018-09-28T08:48:56.259Z,9.47
2018-09-28T08:51:28.822Z,9.00
2018-09-28T08:54:01.284Z,10.43
2018-09-28T08:56:38.852Z,9.03
2018-09-28T08:59:11.546Z,9.93
2018-09-28T09:01:45.082Z,9.60
2018-09-28T09:04:17.930Z,9.27
2018-09-28T09:06:51.217Z,9.73
2018-09-28T09:09:23.687Z,9.10
2018-09-28T09:11:56.805Z,8.50
2018-09-28T09:14:35.543Z,9.37
2018-09-28T09:17:08.298Z,8.40
2018-09-28T09:19:40.986Z,8.53
2018-09-28T09:22:13.407Z,8.17
2018-09-28T09:24:46.012Z,8.83
2018-09-28T09:27:18.982Z,10.90
2018-09-28T09:29:51.527Z,10.50
2018-09-28T09:32:30.668Z,11.83
2018-09-28T09:35:03.607Z,9.53
2018-09-28T09:37:37.012Z,8.13
2018-09-28T09:40:09.492Z,9.10
2018-09-28T09:42:42.710Z,8.00
2018-09-28T09:45:15.237Z,10.30
2018-09-28T09:47:47.823Z,7.80
2018-09-28T09:50:22.982Z,7.93
2018-09-28T09:52:55.597Z,8.67
2018-09-28T09:55:35.828Z,8.80
2018-09-28T09:58:08.623Z,7.20
2018-09-28T10:00:50.168Z,8.67
2018-09-28T10:03:27.037Z,8.07
2018-09-28T10:05:59.883Z,11.57
2018-09-28T10:08:32.790Z,9.57
2018-09-28T10:11:05.176Z,9.30
2018-09-28T10:13:37.624Z,11.33
2018-09-28T10:16:10.395Z,11.50
2018-09-28T10:18:43.598Z,9.80
2018-09-28T10:21:16.203Z,8.97
2018-09-28T10:23:48.686Z,9.93
2018-09-28T10:26:21.133Z,10.03
2018-09-28T10:28:53.532Z,11.17
2018-09-28T10:31:26.221Z,10.37
2018-09-28T10:34:04.191Z,9.07
2018-09-28T10:36:38.289Z,9.10
2018-09-28T10:39:12.736Z,10.27
2018-09-28T10:41:50.229Z,10.80
2018-09-28T10:44:22.771Z,12.03
2018-09-28T10:46:55.408Z,12.40
2018-09-28T10:49:28.286Z,12.83
2018-09-28T10:52:01.071Z,11.47
2018-09-28T10:54:33.951Z,14.18
2018-09-28T10:57:06.369Z,11.60
2018-09-28T10:59:40.286Z,14.20
2018-09-28T11:02:12.940Z,12.30
2018-09-28T11:04:45.955Z,20.17
2018-09-28T11:07:19.310Z,14.47
2018-09-28T11:09:51.899Z,10.37
2018-09-28T11:12:30.904Z,15.90
2018-09-28T11:15:10.134Z,53.37
2018-09-28T11:17:42.667Z,37.50
2018-09-28T11:20:15.415Z,37.20
2018-09-28T11:22:54.273Z,37.27
2018-09-28T11:25:27.072Z,31.33
2018-09-28T11:27:59.490Z,12.30
2018-09-28T11:30:31.973Z,20.33
2018-09-28T11:33:04.966Z,15.53
2018-09-28T11:35:37.809Z,20.03
2018-09-28T11:38:10.131Z,12.13
2018-09-28T11:40:42.603Z,13.55
2018-09-28T11:43:15.129Z,11.53
2018-09-28T11:45:47.819Z,21.53
2018-09-28T11:48:20.440Z,21.93
2018-09-28T11:50:53.038Z,18.73
2018-09-28T11:53:26.191Z,14.98
2018-09-28T11:55:58.911Z,14.87
2018-09-28T11:58:31.415Z,14.30
2018-09-28T12:01:04.820Z,13.07
2018-09-28T12:03:43.066Z,21.07
2018-09-28T12:06:20.594Z,13.73
2018-09-28T12:08:53.473Z,20.20
2018-09-28T12:11:26.167Z,14.63
2018-09-28T12:13:58.756Z,13.78
2018-09-28T12:16:32.247Z,18.10
2018-09-28T12:19:05.014Z,14.37
2018-09-28T12:21:37.850Z,12.53
2018-09-28T12:24:10.708Z,11.80
2018-09-28T12:26:43.901Z,17.03
2018-09-28T12:29:25.751Z,14.10
2018-09-28T12:31:58.993Z,14.93
2018-09-28T12:34:31.817Z,14.05
2018-09-28T12:37:04.456Z,15.23
2018-09-28T12:39:41.887Z,16.83
2018-09-28T12:42:15.130Z,13.13
2018-09-28T12:44:48.177Z,15.03
2018-09-28T12:47:22.045Z,13.67
2018-09-28T12:49:54.886Z,12.43
2018-09-28T12:52:30.251Z,14.47
2018-09-28T12:55:05.960Z,20.63
2018-09-28T12:57:39.291Z,15.63
2018-09-28T13:00:17.202Z,24.67
2018-09-28T13:02:51.430Z,16.70
2018-09-28T13:08:11.416Z,14.13
2018-09-28T13:10:49.994Z,15.35
2018-09-28T13:13:27.699Z,15.57
2018-09-28T13:16:00.352Z,24.53
2018-09-28T13:18:34.065Z,12.73
2018-09-28T13:21:15.083Z,11.37
2018-09-28T13:24:00.362Z,19.03
2018-09-28T13:26:33.140Z,11.43
2018-09-28T13:29:14.974Z,12.23
2018-09-28T13:31:50.938Z,14.47
2018-09-28T13:37:12.160Z,16.03
2018-09-28T13:40:04.899Z,13.23
2018-09-28T13:42:48.625Z,17.03
2018-09-28T13:45:24.473Z,14.20
2018-09-28T13:48:06.658Z,13.93
2018-09-28T13:50:44.297Z,15.70
2018-09-28T13:56:27.367Z,13.33
2018-09-28T13:59:05.747Z,13.18
2018-09-28T14:01:41.844Z,54.27
2018-09-28T14:04:39.569Z,14.10
2018-09-28T14:07:17.751Z,35.53
2018-09-28T14:12:45.613Z,120.30
2018-09-28T14:15:29.757Z,75.53
2018-09-28T14:18:15.041Z,92.10
2018-09-28T14:21:04.686Z,73.20
2018-09-28T14:23:44.216Z,12.88
2018-09-28T14:26:22.626Z,10.40
2018-09-28T14:30:32.625Z,19.47
2018-09-28T14:33:12.627Z,11.90
2018-09-28T14:35:58.046Z,17.60
2018-09-28T14:41:25.471Z,27.13
2018-09-28T14:44:00.613Z,64.03
2018-09-28T14:46:40.350Z,28.40
2018-09-28T14:49:22.561Z,32.97
2018-09-28T14:52:07.610Z,14.40
2018-09-28T14:54:48.967Z,12.17
2018-09-28T14:57:27.412Z,6.20
2018-09-28T15:00:04.986Z,6.47
2018-09-28T15:02:52.681Z,9.10
2018-09-28T15:05:37.829Z,14.67
2018-09-28T15:08:16.474Z,6.60
2018-09-28T15:10:51.685Z,10.47
2018-09-28T15:13:35.210Z,9.88
2018-09-28T15:16:10.980Z,6.83
2018-09-28T15:18:47.183Z,11.77
2018-09-28T15:21:22.884Z,9.30
2018-09-28T15:24:00.308Z,8.03
2018-09-28T15:26:37.693Z,6.00
2018-09-28T15:29:13.769Z,6.10
2018-09-28T15:31:54.133Z,7.65
2018-09-28T15:34:31.221Z,5.80
2018-09-28T15:37:06.457Z,6.90
2018-09-28T15:39:43.777Z,7.00
2018-09-28T15:42:19.669Z,5.27
2018-09-28T15:44:57.117Z,7.90
2018-09-28T15:47:33.873Z,5.50
2018-09-28T15:50:13.233Z,7.70
2018-09-28T15:52:50.810Z,14.98
2018-09-28T15:55:26.574Z,8.97
2018-09-28T15:58:08.068Z,10.30
2018-09-28T16:00:45.367Z,6.20
2018-09-28T16:03:29.487Z,6.73
2018-09-28T16:09:02.167Z,22.60
2018-09-28T16:11:38.854Z,5.53
2018-09-28T16:14:14.045Z,6.90
2018-09-28T16:16:53.218Z,10.87
2018-09-28T16:19:28.079Z,4.70
2018-09-28T16:22:06.137Z,7.10
2018-09-28T16:24:39.656Z,11.00
2018-09-28T16:27:20.265Z,7.10
2018-09-28T16:29:55.856Z,7.07
2018-09-28T16:32:30.002Z,6.80
2018-09-28T16:35:04.214Z,6.70
2018-09-28T16:37:38.711Z,4.90
2018-09-28T16:40:11.597Z,7.10
2018-09-28T16:42:48.509Z,22.90
2018-09-28T16:45:23.666Z,6.97
2018-09-28T16:48:00.725Z,6.17
2018-09-28T16:50:33.130Z,6.83
2018-09-28T16:53:11.674Z,6.10
2018-09-28T16:55:44.937Z,5.60
2018-09-28T17:22:46.647Z,10.27
2018-09-28T17:25:19.278Z,6.57
2018-09-28T17:27:58.370Z,4.93
2018-09-28T17:33:50.305Z,4.97
2018-09-28T17:36:23.177Z,5.43
2018-09-28T17:39:00.616Z,5.83
2018-09-28T17:41:34.323Z,7.97
2018-09-28T17:44:17.944Z,5.97
2018-09-28T17:46:54.402Z,7.33
2018-09-28T17:49:33.388Z,5.70
2018-09-28T17:52:08.852Z,5.70
2018-09-28T17:54:45.338Z,5.27
2018-09-28T17:57:20.992Z,9.70
2018-09-28T18:00:12.403Z,3.57
2018-09-28T18:02:45.861Z,4.47
2018-09-28T18:05:26.341Z,5.07
2018-09-28T18:08:05.779Z,5.53
2018-09-28T18:11:02.125Z,3.98
2018-09-28T18:13:40.657Z,8.00
2018-09-28T18:16:23.014Z,4.27
2018-09-28T18:21:54.196Z,4.57
2018-09-28T18:24:35.257Z,3.77
2018-09-28T18:27:10.668Z,6.80
2018-09-28T18:29:49.269Z,5.90
2018-09-28T18:32:24.648Z,4.70
2018-09-28T18:35:05.146Z,3.83
2018-09-28T18:37:39.706Z,7.83
2018-09-28T18:40:24.056Z,8.53
2018-09-28T18:43:11.714Z,4.87
2018-09-28T18:45:50.160Z,4.90
2018-09-28T18:48:23.180Z,4.07
2018-09-28T18:50:57.670Z,3.50
2018-09-28T18:53:35.360Z,3.70
2018-09-28T18:56:08.830Z,5.40
2018-09-28T18:58:42.440Z,3.50
2018-09-28T19:01:19.180Z,3.43
2018-09-28T19:03:52.376Z,5.70
2018-09-28T19:06:30.504Z,5.57
2018-09-28T19:09:07.015Z,6.00
2018-09-28T19:15:17.217Z,3.50
2018-09-28T19:17:53.069Z,12.63
2018-09-28T19:23:27.060Z,5.13
2018-09-28T19:26:04.712Z,4.80
2018-09-28T19:28:46.629Z,4.60
2018-09-28T19:31:27.797Z,5.27
2018-09-28T19:34:11.810Z,7.03
2018-09-28T19:36:54.770Z,4.03
2018-09-28T19:42:48.986Z,7.37
2018-09-28T19:45:31.822Z,9.70
2018-09-28T19:48:09.186Z,5.80
2018-09-28T19:50:55.654Z,3.53
2018-09-28T19:53:35.885Z,4.10
2018-09-28T19:56:24.181Z,6.00
2018-09-28T20:01:44.468Z,3.47
2018-09-28T20:04:21.777Z,4.47
2018-09-28T20:07:00.371Z,6.87
2018-09-28T20:09:40.246Z,4.08
2018-09-28T20:12:16.926Z,4.27
2018-09-28T20:14:52.694Z,5.50
2018-09-28T20:17:33.157Z,6.10
2018-09-28T20:20:12.546Z,3.70
2018-09-28T20:22:57.722Z,4.20
2018-09-28T20:25:43.451Z,4.10
2018-09-28T20:28:34.679Z,6.83
2018-09-28T20:31:15.085Z,5.27
2018-09-28T20:33:54.919Z,3.40
2018-09-28T20:36:33.113Z,5.23
2018-09-28T20:39:15.294Z,10.30
2018-09-28T20:41:52.034Z,5.50
2018-09-28T20:44:29.031Z,4.27
2018-09-28T20:47:08.036Z,4.37
2018-09-28T20:49:41.839Z,7.40
2018-09-28T20:55:04.256Z,7.43
2018-09-28T20:57:39.939Z,5.37
2018-09-28T21:00:16.341Z,6.60
2018-09-28T21:02:53.677Z,4.00
2018-09-28T21:05:35.937Z,4.37
2018-09-28T21:08:12.860Z,4.77
2018-09-28T21:10:49.887Z,5.30
2018-09-28T21:13:25.573Z,4.90
2018-09-28T21:16:10.414Z,5.45
2018-09-28T21:18:49.369Z,3.70
2018-09-28T21:21:31.897Z,5.20
2018-09-28T21:24:04.664Z,5.37
2018-09-28T21:26:42.058Z,4.20
2018-09-28T21:29:23.981Z,8.73
2018-09-28T21:32:00.632Z,5.70
2018-09-28T21:34:35.906Z,9.13
2018-09-28T21:37:24.727Z,7.83
2018-09-28T21:40:14.478Z,4.67
2018-09-28T21:42:52.380Z,5.97
2018-09-28T21:45:31.770Z,6.63
2018-09-28T21:48:07.702Z,6.73
2018-09-28T21:50:47.684Z,7.27
2018-09-28T21:53:29.585Z,6.62
2018-09-28T21:56:08.687Z,6.10
2018-09-28T21:58:53.812Z,12.70
2018-09-28T22:01:38.576Z,7.00
2018-09-28T22:04:13.349Z,3.83
2018-09-28T22:06:50.691Z,13.30
2018-09-28T22:09:25.900Z,8.60
2018-09-28T22:12:12.967Z,5.23
2018-09-28T22:14:48.891Z,6.23
2018-09-28T22:17:23.013Z,6.43
2018-09-28T22:19:56.315Z,14.83
2018-09-28T22:22:28.788Z,3.67
2018-09-28T22:25:01.688Z,3.93
2018-09-28T22:27:34.237Z,6.60
2018-09-28T22:30:14.925Z,5.13
2018-09-28T22:32:47.361Z,8.73
2018-09-28T22:35:19.976Z,7.70
2018-09-28T22:37:52.472Z,6.33
2018-09-28T22:40:25.185Z,5.40
2018-09-28T22:43:02.735Z,6.70
2018-09-28T22:45:39.383Z,6.10
2018-09-28T22:48:12.245Z,6.97
2018-09-28T22:50:45.088Z,6.43
2018-09-28T22:53:17.704Z,10.00
2018-09-28T22:55:50.517Z,4.83
2018-09-28T22:58:23.296Z,9.30
2018-09-28T23:00:56.088Z,5.47
2018-09-28T23:03:28.512Z,5.10
2018-09-28T23:06:01.181Z,5.07
2018-09-28T23:08:33.791Z,6.23
2018-09-28T23:11:12.889Z,5.63
2018-09-28T23:13:45.657Z,9.97
2018-09-28T23:16:18.356Z,5.03
2018-09-28T23:18:51.134Z,7.17
2018-09-28T23:21:28.811Z,6.47
2018-09-28T23:24:01.432Z,7.37
2018-09-28T23:29:24.564Z,6.10
2018-09-28T23:31:57.461Z,9.63
2018-09-28T23:34:30.000Z,5.53
2018-09-28T23:37:03.557Z,6.83
2018-09-28T23:39:36.346Z,6.87
2018-09-28T23:42:08.939Z,7.27
2018-09-28T23:44:41.408Z,6.80
2018-09-28T23:47:13.749Z,8.37
2018-09-28T23:49:52.319Z,12.20
2018-09-28T23:52:24.999Z,8.27
2018-09-28T23:55:02.441Z,9.80
2018-09-28T23:57:35.272Z,7.43
